createdAt,value
2022-12-20T00:00:01.584Z,99.29
2022-12-20T00:02:55.661Z,99.46
2022-12-20T00:05:47.611Z,99.21
2022-12-20T00:08:21.706Z,98.94
2022-12-20T00:11:09.590Z,99.04
2022-12-20T00:13:42.691Z,98.91
2022-12-20T00:16:31.602Z,98.86
2022-12-20T00:19:16.615Z,98.81
2022-12-20T00:22:03.608Z,98.69
2022-12-20T00:24:43.617Z,98.81
2022-12-20T00:27:30.608Z,99.12
2022-12-20T00:30:03.671Z,99.16
2022-12-20T00:32:50.623Z,99.09
2022-12-20T00:35:30.633Z,99.20
2022-12-20T00:38:17.599Z,99.28
2022-12-20T00:40:50.687Z,99.39
2022-12-20T00:43:38.636Z,99.15
2022-12-20T00:46:12.671Z,99.13
2022-12-20T00:49:00.639Z,99.00
2022-12-20T00:51:36.690Z,98.82
2022-12-20T00:54:23.644Z,98.39
2022-12-20T00:57:03.608Z,98.48
2022-12-20T00:59:57.599Z,98.47
2022-12-20T01:02:44.705Z,98.42
2022-12-20T01:05:17.725Z,98.33
2022-12-20T01:08:04.635Z,98.58
2022-12-20T01:10:37.688Z,98.74
2022-12-20T01:13:24.600Z,98.77
2022-12-20T01:15:57.717Z,98.56
2022-12-20T01:18:44.607Z,98.24
2022-12-20T01:21:21.209Z,98.47
2022-12-20T01:24:07.620Z,98.50
2022-12-20T01:26:47.641Z,98.76
2022-12-20T01:29:34.625Z,98.52
2022-12-20T01:32:07.754Z,98.32
2022-12-20T01:34:54.615Z,98.41
2022-12-20T01:37:27.767Z,98.68
2022-12-20T01:40:16.646Z,98.71
2022-12-20T01:42:49.956Z,99.03
2022-12-20T01:45:44.649Z,99.19
2022-12-20T01:48:32.619Z,99.54
2022-12-20T01:51:12.622Z,99.55
2022-12-20T01:54:04.633Z,99.34
2022-12-20T01:56:37.691Z,99.70
2022-12-20T01:59:24.652Z,99.65
2022-12-20T02:02:04.876Z,99.76
2022-12-20T02:04:58.647Z,99.87
2022-12-20T02:07:45.640Z,100.00
2022-12-20T02:10:26.586Z,100.00
2022-12-20T02:13:28.649Z,100.00
2022-12-20T02:16:23.684Z,100.00
2022-12-20T02:20:09.651Z,100.00
2022-12-20T02:23:38.633Z,100.00
2022-12-20T02:26:46.647Z,100.00
2022-12-20T02:29:44.660Z,100.00
2022-12-20T02:32:42.652Z,100.00
2022-12-20T02:35:32.642Z,100.00
2022-12-20T02:38:08.708Z,100.00
2022-12-20T02:40:58.667Z,100.00
2022-12-20T02:43:53.533Z,100.00
2022-12-20T02:46:49.637Z,100.00
2022-12-20T02:49:49.632Z,100.00
2022-12-20T02:52:38.653Z,100.00
2022-12-20T02:55:13.747Z,100.00
2022-12-20T02:58:09.659Z,100.00
2022-12-20T03:00:49.734Z,100.00
2022-12-20T03:03:42.675Z,100.00
2022-12-20T03:06:22.651Z,100.00
2022-12-20T03:09:16.646Z,100.00
2022-12-20T03:12:03.663Z,100.00
2022-12-20T03:14:36.764Z,100.00
2022-12-20T03:17:23.663Z,100.00
2022-12-20T03:20:03.665Z,100.00
2022-12-20T03:22:50.692Z,100.00
2022-12-20T03:25:23.777Z,100.00
2022-12-20T03:28:10.703Z,100.00
2022-12-20T03:30:43.835Z,100.00
2022-12-20T03:33:30.682Z,100.00
2022-12-20T03:36:03.743Z,100.00
2022-12-20T03:38:50.689Z,100.00
2022-12-20T03:41:23.795Z,100.00
2022-12-20T03:44:12.799Z,100.00
2022-12-20T03:46:46.222Z,100.00
2022-12-20T03:49:32.693Z,100.00
2022-12-20T03:52:05.840Z,100.00
2022-12-20T03:54:55.676Z,100.00
2022-12-20T03:57:36.689Z,100.00
2022-12-20T04:00:23.720Z,100.00
2022-12-20T04:02:57.017Z,100.00
2022-12-20T04:05:43.706Z,100.00
2022-12-20T04:08:23.697Z,100.00
2022-12-20T04:11:24.691Z,100.00
2022-12-20T04:13:59.817Z,100.00
2022-12-20T04:16:48.690Z,100.00
2022-12-20T04:19:21.774Z,100.00
2022-12-20T04:22:10.707Z,100.00
2022-12-20T04:24:44.787Z,100.00
2022-12-20T04:27:31.724Z,100.00
2022-12-20T04:30:04.780Z,100.00
2022-12-20T04:32:51.742Z,100.00
2022-12-20T04:35:24.787Z,100.00
2022-12-20T04:38:12.698Z,100.00
2022-12-20T04:40:45.787Z,100.00
2022-12-20T04:43:34.740Z,100.00
2022-12-20T04:46:08.821Z,100.00
2022-12-20T04:48:58.399Z,100.00
2022-12-20T04:51:34.791Z,100.00
2022-12-20T04:54:21.724Z,100.00
2022-12-20T04:57:02.739Z,100.00
2022-12-20T04:59:58.736Z,100.00
2022-12-20T05:02:54.872Z,100.00
2022-12-20T05:05:50.695Z,100.00
2022-12-20T05:08:37.763Z,100.00
2022-12-20T05:11:20.735Z,100.00
2022-12-20T05:14:16.701Z,100.00
2022-12-20T05:17:10.749Z,100.00
2022-12-20T05:19:58.740Z,100.00
2022-12-20T05:22:51.739Z,100.00
2022-12-20T05:25:58.696Z,100.00
2022-12-20T05:28:31.841Z,100.00
2022-12-20T05:31:18.752Z,100.00
2022-12-20T05:33:52.780Z,100.00
2022-12-20T05:36:39.744Z,100.00
2022-12-20T05:39:12.860Z,100.00
2022-12-20T05:42:00.739Z,100.00
2022-12-20T05:44:40.739Z,100.00
2022-12-20T05:47:34.747Z,100.00
2022-12-20T05:50:23.847Z,100.00
2022-12-20T05:52:57.134Z,100.00
2022-12-20T05:55:43.735Z,99.46
2022-12-20T05:58:16.904Z,99.15
2022-12-20T06:01:03.739Z,98.89
2022-12-20T06:03:36.949Z,98.15
2022-12-20T06:06:23.729Z,98.58
2022-12-20T06:08:56.778Z,98.21
2022-12-20T06:11:43.730Z,98.27
2022-12-20T06:14:16.785Z,97.99
2022-12-20T06:17:03.747Z,98.04
2022-12-20T06:19:36.842Z,97.98
2022-12-20T06:22:23.721Z,98.41
2022-12-20T06:25:03.775Z,98.29
2022-12-20T06:27:57.794Z,98.34
2022-12-20T06:30:51.732Z,98.41
2022-12-20T06:33:38.787Z,98.41
2022-12-20T06:36:11.801Z,98.40
2022-12-20T06:38:58.742Z,98.64
2022-12-20T06:41:38.754Z,98.73
2022-12-20T06:44:32.747Z,98.66
2022-12-20T06:47:26.740Z,98.75
2022-12-20T06:50:21.746Z,98.74
2022-12-20T06:53:08.749Z,98.85
2022-12-20T06:55:41.811Z,98.66
2022-12-20T06:58:28.768Z,99.15
2022-12-20T07:01:01.896Z,99.01
2022-12-20T07:03:48.805Z,99.13
2022-12-20T07:06:28.751Z,99.19
2022-12-20T07:09:15.730Z,99.33
2022-12-20T07:11:48.805Z,99.40
2022-12-20T07:14:35.753Z,99.16
2022-12-20T07:17:16.753Z,98.85
2022-12-20T07:20:14.357Z,98.93
2022-12-20T07:23:01.751Z,98.95
2022-12-20T07:25:41.751Z,98.89
2022-12-20T07:28:36.820Z,98.97
2022-12-20T07:31:23.812Z,99.15
2022-12-20T07:33:57.822Z,98.90
2022-12-20T07:36:44.748Z,99.00
2022-12-20T07:39:25.764Z,98.76
2022-12-20T07:42:15.386Z,98.98
2022-12-20T07:44:49.823Z,98.23
2022-12-20T07:47:37.760Z,98.46
2022-12-20T07:50:18.799Z,98.41
2022-12-20T07:53:14.833Z,97.83
2022-12-20T07:56:03.747Z,97.77
2022-12-20T07:58:38.874Z,97.59
2022-12-20T08:01:33.963Z,97.08
2022-12-20T08:04:19.763Z,97.14
2022-12-20T08:07:17.049Z,97.09
2022-12-20T08:10:03.749Z,96.84
2022-12-20T08:12:38.337Z,96.63
2022-12-20T08:15:25.749Z,96.55
2022-12-20T08:18:05.767Z,96.31
2022-12-20T08:20:59.762Z,96.32
2022-12-20T08:23:46.798Z,96.07
2022-12-20T08:26:19.845Z,96.03
2022-12-20T08:29:08.812Z,96.45
2022-12-20T08:31:50.399Z,96.39
2022-12-20T08:34:37.748Z,96.17
2022-12-20T08:37:17.812Z,96.30
2022-12-20T08:40:11.779Z,96.25
2022-12-20T08:42:58.804Z,95.97
2022-12-20T08:45:31.837Z,96.06
2022-12-20T08:48:20.830Z,96.24
2022-12-20T08:51:01.811Z,95.97
2022-12-20T08:53:55.776Z,96.10
2022-12-20T08:56:42.794Z,96.11
2022-12-20T08:59:24.831Z,96.04
2022-12-20T09:02:18.973Z,95.90
2022-12-20T09:05:12.804Z,95.94
2022-12-20T09:08:00.833Z,96.21
2022-12-20T09:10:40.794Z,95.67
2022-12-20T09:13:27.771Z,95.20
2022-12-20T09:16:01.914Z,93.68
2022-12-20T09:18:48.788Z,92.74
2022-12-20T09:21:31.071Z,93.35
2022-12-20T09:24:17.783Z,93.13
2022-12-20T09:26:57.775Z,93.63
2022-12-20T09:29:44.803Z,93.77
2022-12-20T09:32:24.804Z,94.07
2022-12-20T09:35:22.982Z,94.52
2022-12-20T09:38:09.791Z,94.30
2022-12-20T09:40:49.812Z,93.88
2022-12-20T09:43:40.807Z,93.32
2022-12-20T09:46:26.872Z,93.37
2022-12-20T09:49:24.798Z,93.19
2022-12-20T09:52:36.807Z,93.46
2022-12-20T09:55:44.802Z,93.51
2022-12-20T09:58:37.863Z,94.32
2022-12-20T10:01:37.922Z,93.91
2022-12-20T10:04:19.061Z,93.73
2022-12-20T10:07:33.815Z,93.67
2022-12-20T10:10:31.779Z,93.64
2022-12-20T10:13:28.822Z,93.28
2022-12-20T10:16:34.886Z,92.56
2022-12-20T10:19:37.875Z,91.82
2022-12-20T10:22:32.810Z,92.36
2022-12-20T10:25:25.811Z,92.33
2022-12-20T10:28:19.795Z,91.45
2022-12-20T10:30:59.820Z,91.73
2022-12-20T10:33:47.815Z,91.80
2022-12-20T10:36:33.802Z,91.62
2022-12-20T10:39:27.822Z,91.32
2022-12-20T10:42:28.813Z,91.04
2022-12-20T10:45:03.898Z,91.25
2022-12-20T10:47:59.832Z,91.09
2022-12-20T10:50:53.803Z,91.17
2022-12-20T10:53:41.809Z,91.61
2022-12-20T10:56:38.899Z,90.37
2022-12-20T10:59:25.828Z,90.68
2022-12-20T11:01:58.997Z,90.51
2022-12-20T11:04:46.805Z,90.59
2022-12-20T11:07:33.011Z,90.09
2022-12-20T11:10:28.811Z,90.61
2022-12-20T11:13:14.820Z,89.81
2022-12-20T11:16:09.898Z,90.39
2022-12-20T11:19:15.809Z,90.60
2022-12-20T11:22:36.816Z,90.05
2022-12-20T11:25:22.936Z,90.64
2022-12-20T11:28:31.821Z,90.89
2022-12-20T11:31:19.928Z,90.90
2022-12-20T11:34:09.841Z,90.98
2022-12-20T11:37:26.834Z,91.17
2022-12-20T11:40:45.819Z,91.31
2022-12-20T11:44:24.101Z,90.98
2022-12-20T11:47:08.993Z,90.95
2022-12-20T11:50:22.831Z,91.03
2022-12-20T11:53:45.828Z,91.37
2022-12-20T11:56:44.596Z,90.76
2022-12-20T11:59:34.053Z,91.06
2022-12-20T12:02:41.920Z,91.04
2022-12-20T12:05:39.874Z,91.61
2022-12-20T12:08:39.835Z,91.38
2022-12-20T12:14:49.987Z,91.20
2022-12-20T12:17:48.857Z,90.63
2022-12-20T12:20:27.938Z,89.93
2022-12-20T12:23:35.837Z,89.88
2022-12-20T12:26:22.847Z,90.18
2022-12-20T12:29:22.853Z,90.19
2022-12-20T12:32:21.915Z,90.24
2022-12-20T12:35:24.868Z,90.32
2022-12-20T12:38:24.897Z,90.41
2022-12-20T12:41:20.937Z,90.37
2022-12-20T12:44:46.852Z,90.53
2022-12-20T12:47:27.935Z,90.86
2022-12-20T12:50:24.865Z,90.80
2022-12-20T12:53:03.960Z,91.05
2022-12-20T12:56:19.151Z,90.73
2022-12-20T12:59:22.277Z,90.44
2022-12-20T13:02:27.937Z,90.81
2022-12-20T13:05:25.842Z,90.96
2022-12-20T13:08:22.836Z,91.03
2022-12-20T13:10:55.964Z,91.18
2022-12-20T13:13:42.862Z,91.59
2022-12-20T13:16:48.178Z,91.52
2022-12-20T13:19:32.854Z,91.65
2022-12-20T13:22:23.074Z,91.86
2022-12-20T13:25:10.863Z,91.74
2022-12-20T13:27:49.409Z,91.87
2022-12-20T13:30:35.937Z,92.22
2022-12-20T13:33:33.857Z,92.31
2022-12-20T13:36:23.877Z,92.36
2022-12-20T13:39:03.013Z,92.48
2022-12-20T13:42:14.853Z,92.98
2022-12-20T13:44:58.857Z,92.73
2022-12-20T13:47:58.872Z,93.00
2022-12-20T13:50:55.889Z,92.89
2022-12-20T13:53:33.957Z,93.75
2022-12-20T13:56:40.896Z,93.22
2022-12-20T13:59:24.964Z,93.19
2022-12-20T14:02:24.046Z,93.13
2022-12-20T14:05:06.036Z,93.02
2022-12-20T14:08:05.889Z,93.04
2022-12-20T14:10:40.988Z,93.09
2022-12-20T14:13:33.869Z,93.59
2022-12-20T14:16:30.928Z,93.84
2022-12-20T14:19:21.876Z,93.80
2022-12-20T14:22:02.454Z,93.77
2022-12-20T14:24:57.863Z,93.95
2022-12-20T14:27:44.870Z,93.98
2022-12-20T14:30:43.954Z,94.39
2022-12-20T14:33:49.854Z,94.23
2022-12-20T14:36:43.904Z,94.13
2022-12-20T14:39:34.898Z,94.24
2022-12-20T14:42:13.992Z,94.28
2022-12-20T14:45:09.886Z,94.11
2022-12-20T14:47:50.910Z,94.44
2022-12-20T14:50:53.900Z,94.48
2022-12-20T14:53:40.883Z,94.60
2022-12-20T14:56:31.276Z,94.74
2022-12-20T14:59:24.874Z,94.97
2022-12-20T15:01:59.140Z,95.00
2022-12-20T15:04:45.898Z,94.76
2022-12-20T15:07:37.026Z,95.10
2022-12-20T15:10:23.893Z,95.10
2022-12-20T15:13:03.878Z,95.31
2022-12-20T15:15:51.975Z,95.46
2022-12-20T15:18:27.031Z,95.67
2022-12-20T15:21:21.898Z,95.35
2022-12-20T15:23:59.091Z,95.20
2022-12-20T15:26:45.909Z,95.46
2022-12-20T15:29:23.012Z,95.65
2022-12-20T15:32:21.900Z,95.92
2022-12-20T15:35:01.903Z,95.79
2022-12-20T15:37:55.910Z,95.88
2022-12-20T15:40:42.930Z,95.98
2022-12-20T15:43:31.027Z,95.84
2022-12-20T15:46:26.990Z,95.80
2022-12-20T15:49:30.894Z,95.67
2022-12-20T15:52:26.895Z,95.71
2022-12-20T15:55:00.016Z,95.66
2022-12-20T15:57:46.991Z,95.70
2022-12-20T16:00:21.045Z,95.56
2022-12-20T16:03:08.979Z,95.96
2022-12-20T16:05:48.952Z,95.82
2022-12-20T16:08:42.907Z,95.89
2022-12-20T16:11:34.885Z,95.90
2022-12-20T16:14:08.140Z,96.05
2022-12-20T16:16:56.906Z,95.85
2022-12-20T16:19:30.058Z,95.42
2022-12-20T16:22:34.897Z,96.18
2022-12-20T16:25:19.857Z,95.95
2022-12-20T16:28:13.922Z,96.30
2022-12-20T16:31:00.931Z,96.44
2022-12-20T16:33:34.043Z,96.34
2022-12-20T16:36:20.908Z,96.46
2022-12-20T16:38:55.128Z,96.38
2022-12-20T16:41:41.918Z,96.50
2022-12-20T16:44:23.023Z,96.07
2022-12-20T16:47:16.987Z,96.34
2022-12-20T16:50:10.924Z,96.07
2022-12-20T16:52:58.936Z,96.03
2022-12-20T16:55:39.669Z,96.19
2022-12-20T16:58:52.225Z,96.13
2022-12-20T17:01:30.082Z,96.33
2022-12-20T17:04:27.937Z,96.55
2022-12-20T17:07:14.950Z,96.58
2022-12-20T17:10:13.008Z,96.68
2022-12-20T17:13:06.927Z,96.50
2022-12-20T17:16:00.964Z,96.73
2022-12-20T17:19:02.949Z,96.76
2022-12-20T17:24:51.975Z,96.55
2022-12-20T17:27:38.938Z,96.50
2022-12-20T17:30:19.964Z,96.41
2022-12-20T17:33:13.939Z,96.44
2022-12-20T17:36:00.934Z,95.99
2022-12-20T17:38:34.056Z,96.45
2022-12-20T17:41:32.942Z,96.89
2022-12-20T17:44:09.119Z,96.67
2022-12-20T17:47:02.958Z,96.50
2022-12-20T17:49:56.962Z,96.98
2022-12-20T17:52:50.933Z,96.80
2022-12-20T17:55:38.947Z,96.61
2022-12-20T17:58:12.145Z,96.62
2022-12-20T18:00:59.008Z,96.71
2022-12-20T18:04:02.761Z,96.75
2022-12-20T18:06:53.956Z,96.63
2022-12-20T18:09:40.976Z,97.09
2022-12-20T18:12:17.108Z,96.95
2022-12-20T18:15:03.945Z,96.81
2022-12-20T18:17:37.874Z,96.85
2022-12-20T18:20:24.956Z,96.87
2022-12-20T18:23:00.238Z,96.77
2022-12-20T18:25:46.966Z,96.71
2022-12-20T18:28:20.079Z,96.90
2022-12-20T18:31:08.955Z,97.11
2022-12-20T18:33:43.062Z,96.95
2022-12-20T18:36:31.979Z,96.41
2022-12-20T18:39:13.003Z,96.56
2022-12-20T18:42:06.981Z,96.59
2022-12-20T18:44:53.964Z,96.60
2022-12-20T18:47:27.095Z,96.69
2022-12-20T18:50:13.979Z,97.07
2022-12-20T18:52:47.370Z,97.29
2022-12-20T18:55:33.978Z,97.26
2022-12-20T18:58:07.090Z,97.14
2022-12-20T19:00:53.995Z,97.43
2022-12-20T19:03:27.292Z,97.06
2022-12-20T19:06:13.968Z,97.20
2022-12-20T19:08:54.927Z,96.95
2022-12-20T19:11:54.606Z,96.93
2022-12-20T19:14:50.985Z,97.07
2022-12-20T19:17:44.987Z,97.49
2022-12-20T19:20:31.979Z,97.40
2022-12-20T19:23:05.075Z,97.46
2022-12-20T19:25:51.982Z,97.61
2022-12-20T19:28:25.103Z,97.58
2022-12-20T19:31:22.231Z,97.74
2022-12-20T19:34:04.997Z,97.77
2022-12-20T19:37:00.000Z,97.95
2022-12-20T19:39:46.967Z,97.58
2022-12-20T19:42:24.964Z,97.64
2022-12-20T19:45:12.073Z,97.79
2022-12-20T19:47:45.118Z,97.74
2022-12-20T19:50:31.978Z,98.04
2022-12-20T19:53:05.727Z,98.09
2022-12-20T19:55:58.989Z,98.08
2022-12-20T19:58:38.984Z,98.22
2022-12-20T20:01:28.268Z,98.22
2022-12-20T20:04:05.305Z,98.43
2022-12-20T20:06:52.042Z,98.43
2022-12-20T20:09:25.088Z,98.31
2022-12-20T20:12:11.983Z,98.41
2022-12-20T20:14:45.862Z,98.32
2022-12-20T20:17:32.990Z,98.51
2022-12-20T20:20:06.144Z,98.33
2022-12-20T20:22:52.989Z,98.62
2022-12-20T20:25:26.407Z,98.48
2022-12-20T20:28:13.029Z,98.15
2022-12-20T20:30:58.038Z,98.42
2022-12-20T20:33:45.010Z,98.38
2022-12-20T20:36:37.002Z,98.12
2022-12-20T20:39:31.032Z,98.20
2022-12-20T20:42:25.008Z,98.15
2022-12-20T20:45:12.001Z,98.23
2022-12-20T20:47:46.142Z,98.28
2022-12-20T20:50:33.006Z,98.38
2022-12-20T20:53:07.126Z,98.42
2022-12-20T20:55:54.015Z,98.25
2022-12-20T20:58:33.974Z,98.49
2022-12-20T21:01:29.051Z,98.31
2022-12-20T21:04:15.992Z,98.29
2022-12-20T21:06:49.221Z,98.26
2022-12-20T21:09:36.024Z,98.34
2022-12-20T21:12:09.363Z,98.23
2022-12-20T21:15:21.142Z,98.23
2022-12-20T21:17:49.094Z,98.32
2022-12-20T21:20:36.018Z,98.08
2022-12-20T21:23:09.122Z,98.23
2022-12-20T21:26:04.008Z,97.94
2022-12-20T21:28:38.168Z,97.92
2022-12-20T21:31:26.121Z,97.92
2022-12-20T21:33:59.238Z,97.80
2022-12-20T21:36:46.034Z,97.87
2022-12-20T21:39:20.130Z,98.11
2022-12-20T21:42:07.043Z,98.21
2022-12-20T21:44:40.136Z,98.07
2022-12-20T21:47:34.022Z,98.21
2022-12-20T21:50:28.024Z,98.18
2022-12-20T21:53:22.027Z,97.99
2022-12-20T21:56:10.037Z,98.21
2022-12-20T21:58:43.142Z,98.26
2022-12-20T22:01:33.159Z,98.43
2022-12-20T22:04:16.081Z,98.53
2022-12-20T22:07:03.026Z,98.58
2022-12-20T22:09:43.014Z,98.51
2022-12-20T22:12:30.030Z,98.36
2022-12-20T22:15:10.035Z,98.35
2022-12-20T22:18:04.058Z,97.97
2022-12-20T22:20:59.024Z,98.28
2022-12-20T22:23:47.070Z,98.14
2022-12-20T22:26:30.052Z,98.11
2022-12-20T22:29:18.042Z,98.01
2022-12-20T22:31:59.177Z,98.06
2022-12-20T22:34:53.022Z,97.88
2022-12-20T22:37:47.108Z,97.91
2022-12-20T22:40:41.039Z,97.79
2022-12-20T22:43:28.046Z,97.87
2022-12-20T22:49:10.083Z,97.88
2022-12-20T22:51:43.211Z,97.92
2022-12-20T22:54:30.050Z,97.99
2022-12-20T22:57:03.200Z,98.03
2022-12-20T22:59:50.095Z,98.16
2022-12-20T23:02:23.308Z,98.26
2022-12-20T23:05:10.045Z,98.13
2022-12-20T23:07:43.213Z,98.22
2022-12-20T23:10:48.072Z,98.34
2022-12-20T23:13:39.767Z,98.33
2022-12-20T23:16:31.139Z,98.48
2022-12-20T23:19:07.263Z,98.46
2022-12-20T23:22:13.083Z,98.41
2022-12-20T23:24:46.138Z,98.18
2022-12-20T23:27:33.086Z,98.10
2022-12-20T23:30:07.158Z,97.84
2022-12-20T23:32:54.045Z,97.94
2022-12-20T23:35:27.215Z,97.89
2022-12-20T23:38:14.060Z,97.79
2022-12-20T23:40:47.148Z,97.72
2022-12-20T23:43:37.091Z,97.69
2022-12-20T23:46:19.111Z,97.89
2022-12-20T23:49:13.072Z,97.97
2022-12-20T23:52:07.080Z,97.89
2022-12-20T23:54:54.098Z,98.02
2022-12-20T23:57:34.096Z,98.12
